sensor_id;sensor_type;location;lat;lon;timestamp;P1;durP1;ratioP1;P2;durP2;ratioP2
20040;SDS011;10181;48.072;9.884;2023-04-24T00:02:13;4.33;;;4.13;;
20040;SDS011;10181;48.072;9.884;2023-04-24T00:04:38;4.23;;;4.03;;
20040;SDS011;10181;48.072;9.884;2023-04-24T00:07:09;5.33;;;5.13;;
20040;SDS011;10181;48.072;9.884;2023-04-24T00:09:35;3.57;;;3.47;;
20040;SDS011;10181;48.072;9.884;2023-04-24T00:12:01;3.93;;;3.77;;
20040;SDS011;10181;48.072;9.884;2023-04-24T00:14:29;3.10;;;3.00;;
20040;SDS011;10181;48.072;9.884;2023-04-24T00:16:56;3.50;;;3.40;;
20040;SDS011;10181;48.072;9.884;2023-04-24T00:19:21;3.70;;;3.50;;
20040;SDS011;10181;48.072;9.884;2023-04-24T00:21:47;3.57;;;3.47;;
20040;SDS011;10181;48.072;9.884;2023-04-24T00:24:15;3.73;;;3.53;;
20040;SDS011;10181;48.072;9.884;2023-04-24T00:26:41;4.13;;;3.83;;
20040;SDS011;10181;48.072;9.884;2023-04-24T00:29:07;4.77;;;4.57;;
20040;SDS011;10181;48.072;9.884;2023-04-24T00:31:32;3.57;;;3.43;;
20040;SDS011;10181;48.072;9.884;2023-04-24T00:33:59;5.20;;;5.00;;
20040;SDS011;10181;48.072;9.884;2023-04-24T00:36:29;5.43;;;5.23;;
20040;SDS011;10181;48.072;9.884;2023-04-24T00:38:55;5.87;;;5.67;;
20040;SDS011;10181;48.072;9.884;2023-04-24T00:41:21;6.27;;;6.07;;
20040;SDS011;10181;48.072;9.884;2023-04-24T00:43:49;5.20;;;5.10;;
20040;SDS011;10181;48.072;9.884;2023-04-24T00:46:15;7.80;;;7.30;;
20040;SDS011;10181;48.072;9.884;2023-04-24T00:48:41;7.00;;;6.67;;
20040;SDS011;10181;48.072;9.884;2023-04-24T00:51:08;7.20;;;6.77;;
20040;SDS011;10181;48.072;9.884;2023-04-24T00:53:34;7.23;;;6.93;;
20040;SDS011;10181;48.072;9.884;2023-04-24T00:56:00;5.47;;;5.27;;
20040;SDS011;10181;48.072;9.884;2023-04-24T00:58:30;7.73;;;7.50;;
20040;SDS011;10181;48.072;9.884;2023-04-24T01:00:56;4.60;;;4.40;;
20040;SDS011;10181;48.072;9.884;2023-04-24T01:03:24;5.40;;;5.20;;
20040;SDS011;10181;48.072;9.884;2023-04-24T01:05:54;5.57;;;5.17;;
20040;SDS011;10181;48.072;9.884;2023-04-24T01:08:20;5.20;;;5.00;;
20040;SDS011;10181;48.072;9.884;2023-04-24T01:10:52;5.47;;;5.27;;
20040;SDS011;10181;48.072;9.884;2023-04-24T01:13:18;5.43;;;5.23;;
20040;SDS011;10181;48.072;9.884;2023-04-24T01:15:44;5.70;;;5.47;;
20040;SDS011;10181;48.072;9.884;2023-04-24T01:18:10;4.50;;;4.30;;
20040;SDS011;10181;48.072;9.884;2023-04-24T01:20:36;4.20;;;3.90;;
20040;SDS011;10181;48.072;9.884;2023-04-24T01:23:05;5.93;;;5.67;;
20040;SDS011;10181;48.072;9.884;2023-04-24T01:25:31;5.67;;;5.30;;
20040;SDS011;10181;48.072;9.884;2023-04-24T01:27:57;5.80;;;5.40;;
20040;SDS011;10181;48.072;9.884;2023-04-24T01:30:24;4.73;;;4.53;;
20040;SDS011;10181;48.072;9.884;2023-04-24T01:32:50;3.10;;;3.00;;
20040;SDS011;10181;48.072;9.884;2023-04-24T01:35:16;3.87;;;3.67;;
20040;SDS011;10181;48.072;9.884;2023-04-24T01:37:42;4.63;;;4.43;;
20040;SDS011;10181;48.072;9.884;2023-04-24T01:40:08;5.17;;;4.97;;
20040;SDS011;10181;48.072;9.884;2023-04-24T01:42:35;5.80;;;5.60;;
20040;SDS011;10181;48.072;9.884;2023-04-24T01:45:02;6.00;;;5.80;;
20040;SDS011;10181;48.072;9.884;2023-04-24T01:47:29;5.40;;;5.10;;
20040;SDS011;10181;48.072;9.884;2023-04-24T01:49:55;4.73;;;4.53;;
20040;SDS011;10181;48.072;9.884;2023-04-24T01:52:21;4.47;;;4.33;;
20040;SDS011;10181;48.072;9.884;2023-04-24T01:54:47;4.67;;;4.47;;
20040;SDS011;10181;48.072;9.884;2023-04-24T01:57:13;5.20;;;4.90;;
20040;SDS011;10181;48.072;9.884;2023-04-24T01:59:39;4.67;;;4.53;;
20040;SDS011;10181;48.072;9.884;2023-04-24T02:02:05;5.20;;;5.00;;
20040;SDS011;10181;48.072;9.884;2023-04-24T02:04:31;6.07;;;5.63;;
20040;SDS011;10181;48.072;9.884;2023-04-24T02:06:56;5.60;;;5.40;;
20040;SDS011;10181;48.072;9.884;2023-04-24T02:09:22;7.17;;;6.87;;
20040;SDS011;10181;48.072;9.884;2023-04-24T02:11:48;5.00;;;4.60;;
20040;SDS011;10181;48.072;9.884;2023-04-24T02:14:16;5.90;;;5.70;;
20040;SDS011;10181;48.072;9.884;2023-04-24T02:16:41;6.03;;;5.83;;
20040;SDS011;10181;48.072;9.884;2023-04-24T02:19:08;6.40;;;6.20;;
20040;SDS011;10181;48.072;9.884;2023-04-24T02:21:34;5.03;;;4.87;;
20040;SDS011;10181;48.072;9.884;2023-04-24T02:24:00;6.33;;;6.13;;
20040;SDS011;10181;48.072;9.884;2023-04-24T02:26:26;5.77;;;5.57;;
20040;SDS011;10181;48.072;9.884;2023-04-24T02:28:51;5.90;;;5.70;;
20040;SDS011;10181;48.072;9.884;2023-04-24T02:31:17;6.40;;;6.20;;
20040;SDS011;10181;48.072;9.884;2023-04-24T02:33:43;6.50;;;6.30;;
20040;SDS011;10181;48.072;9.884;2023-04-24T02:36:08;5.33;;;5.20;;
20040;SDS011;10181;48.072;9.884;2023-04-24T02:38:34;5.07;;;4.87;;
20040;SDS011;10181;48.072;9.884;2023-04-24T02:40:59;5.03;;;4.93;;
20040;SDS011;10181;48.072;9.884;2023-04-24T02:43:26;4.27;;;4.07;;
20040;SDS011;10181;48.072;9.884;2023-04-24T02:45:52;3.77;;;3.57;;
20040;SDS011;10181;48.072;9.884;2023-04-24T02:48:18;3.13;;;3.03;;
20040;SDS011;10181;48.072;9.884;2023-04-24T02:50:45;3.40;;;3.30;;
20040;SDS011;10181;48.072;9.884;2023-04-24T02:53:11;2.43;;;2.43;;
20040;SDS011;10181;48.072;9.884;2023-04-24T02:55:36;2.77;;;2.67;;
20040;SDS011;10181;48.072;9.884;2023-04-24T02:58:02;2.43;;;2.33;;
20040;SDS011;10181;48.072;9.884;2023-04-24T03:00:28;2.23;;;2.20;;
20040;SDS011;10181;48.072;9.884;2023-04-24T03:02:53;3.43;;;2.60;;
20040;SDS011;10181;48.072;9.884;2023-04-24T03:05:19;2.50;;;2.40;;
20040;SDS011;10181;48.072;9.884;2023-04-24T03:07:44;2.07;;;2.07;;
20040;SDS011;10181;48.072;9.884;2023-04-24T03:10:10;1.87;;;1.87;;
20040;SDS011;10181;48.072;9.884;2023-04-24T03:12:36;3.27;;;3.17;;
20040;SDS011;10181;48.072;9.884;2023-04-24T03:15:01;2.67;;;2.57;;
20040;SDS011;10181;48.072;9.884;2023-04-24T03:17:27;2.07;;;2.07;;
20040;SDS011;10181;48.072;9.884;2023-04-24T03:19:53;2.13;;;2.00;;
20040;SDS011;10181;48.072;9.884;2023-04-24T03:22:18;1.70;;;1.70;;
20040;SDS011;10181;48.072;9.884;2023-04-24T03:24:44;2.60;;;2.40;;
20040;SDS011;10181;48.072;9.884;2023-04-24T03:27:09;2.23;;;2.13;;
20040;SDS011;10181;48.072;9.884;2023-04-24T03:29:35;2.13;;;2.10;;
20040;SDS011;10181;48.072;9.884;2023-04-24T03:32:00;1.70;;;1.70;;
20040;SDS011;10181;48.072;9.884;2023-04-24T03:34:26;1.70;;;1.70;;
20040;SDS011;10181;48.072;9.884;2023-04-24T03:36:52;1.50;;;1.50;;
20040;SDS011;10181;48.072;9.884;2023-04-24T03:39:17;1.70;;;1.60;;
20040;SDS011;10181;48.072;9.884;2023-04-24T03:41:43;1.10;;;1.00;;
20040;SDS011;10181;48.072;9.884;2023-04-24T03:44:08;1.20;;;1.20;;
20040;SDS011;10181;48.072;9.884;2023-04-24T03:46:34;1.53;;;1.53;;
20040;SDS011;10181;48.072;9.884;2023-04-24T03:49:00;1.53;;;1.53;;
20040;SDS011;10181;48.072;9.884;2023-04-24T03:51:25;1.27;;;1.27;;
20040;SDS011;10181;48.072;9.884;2023-04-24T03:53:53;1.63;;;1.63;;
20040;SDS011;10181;48.072;9.884;2023-04-24T03:56:18;1.20;;;1.20;;
20040;SDS011;10181;48.072;9.884;2023-04-24T03:58:44;1.80;;;1.40;;
20040;SDS011;10181;48.072;9.884;2023-04-24T04:01:10;1.37;;;1.33;;
20040;SDS011;10181;48.072;9.884;2023-04-24T04:03:36;1.40;;;1.40;;
20040;SDS011;10181;48.072;9.884;2023-04-24T04:06:02;1.40;;;1.40;;
20040;SDS011;10181;48.072;9.884;2023-04-24T04:08:28;1.30;;;1.30;;
20040;SDS011;10181;48.072;9.884;2023-04-24T04:10:53;1.57;;;1.50;;
20040;SDS011;10181;48.072;9.884;2023-04-24T04:13:19;1.60;;;1.60;;
20040;SDS011;10181;48.072;9.884;2023-04-24T04:15:45;2.07;;;1.97;;
20040;SDS011;10181;48.072;9.884;2023-04-24T04:18:10;1.60;;;1.60;;
20040;SDS011;10181;48.072;9.884;2023-04-24T04:20:36;1.80;;;1.80;;
20040;SDS011;10181;48.072;9.884;2023-04-24T04:23:02;1.80;;;1.80;;
20040;SDS011;10181;48.072;9.884;2023-04-24T04:25:27;1.27;;;1.27;;
20040;SDS011;10181;48.072;9.884;2023-04-24T04:27:54;1.30;;;1.30;;
20040;SDS011;10181;48.072;9.884;2023-04-24T04:30:20;1.80;;;1.80;;
20040;SDS011;10181;48.072;9.884;2023-04-24T04:32:46;1.87;;;1.83;;
20040;SDS011;10181;48.072;9.884;2023-04-24T04:35:12;2.13;;;2.03;;
20040;SDS011;10181;48.072;9.884;2023-04-24T04:37:38;2.20;;;2.00;;
20040;SDS011;10181;48.072;9.884;2023-04-24T04:40:05;71.93;;;38.73;;
20040;SDS011;10181;48.072;9.884;2023-04-24T04:42:31;25.33;;;18.47;;
20040;SDS011;10181;48.072;9.884;2023-04-24T04:44:58;41.50;;;25.53;;
20040;SDS011;10181;48.072;9.884;2023-04-24T04:47:24;90.73;;;50.80;;
20040;SDS011;10181;48.072;9.884;2023-04-24T04:49:51;45.93;;;25.37;;
20040;SDS011;10181;48.072;9.884;2023-04-24T04:52:17;38.97;;;22.63;;
20040;SDS011;10181;48.072;9.884;2023-04-24T04:54:43;26.33;;;22.67;;
20040;SDS011;10181;48.072;9.884;2023-04-24T04:57:09;14.23;;;11.83;;
20040;SDS011;10181;48.072;9.884;2023-04-24T04:59:35;26.27;;;19.17;;
20040;SDS011;10181;48.072;9.884;2023-04-24T05:02:00;2.70;;;2.60;;
20040;SDS011;10181;48.072;9.884;2023-04-24T05:04:26;3.13;;;2.93;;
20040;SDS011;10181;48.072;9.884;2023-04-24T05:06:52;3.03;;;2.93;;
20040;SDS011;10181;48.072;9.884;2023-04-24T05:09:18;4.43;;;4.23;;
20040;SDS011;10181;48.072;9.884;2023-04-24T05:11:43;3.03;;;2.93;;
20040;SDS011;10181;48.072;9.884;2023-04-24T05:14:09;2.20;;;2.20;;
20040;SDS011;10181;48.072;9.884;2023-04-24T05:16:35;2.13;;;2.03;;
20040;SDS011;10181;48.072;9.884;2023-04-24T05:19:02;1.77;;;1.77;;
20040;SDS011;10181;48.072;9.884;2023-04-24T05:21:28;2.50;;;2.30;;
20040;SDS011;10181;48.072;9.884;2023-04-24T05:23:54;2.10;;;2.10;;
20040;SDS011;10181;48.072;9.884;2023-04-24T05:26:19;2.43;;;2.33;;
20040;SDS011;10181;48.072;9.884;2023-04-24T05:28:45;2.30;;;2.20;;
20040;SDS011;10181;48.072;9.884;2023-04-24T05:31:11;2.97;;;2.87;;
20040;SDS011;10181;48.072;9.884;2023-04-24T05:33:37;1.97;;;1.97;;
20040;SDS011;10181;48.072;9.884;2023-04-24T05:36:03;1.70;;;1.60;;
20040;SDS011;10181;48.072;9.884;2023-04-24T05:38:30;2.40;;;2.40;;
20040;SDS011;10181;48.072;9.884;2023-04-24T05:40:56;1.63;;;1.63;;
20040;SDS011;10181;48.072;9.884;2023-04-24T05:43:21;2.60;;;2.40;;
20040;SDS011;10181;48.072;9.884;2023-04-24T05:45:47;1.80;;;1.80;;
20040;SDS011;10181;48.072;9.884;2023-04-24T05:48:12;1.40;;;1.40;;
20040;SDS011;10181;48.072;9.884;2023-04-24T05:50:38;1.97;;;1.97;;
20040;SDS011;10181;48.072;9.884;2023-04-24T05:53:04;1.47;;;1.47;;
20040;SDS011;10181;48.072;9.884;2023-04-24T05:55:31;1.90;;;1.90;;
20040;SDS011;10181;48.072;9.884;2023-04-24T05:57:57;1.43;;;1.43;;
20040;SDS011;10181;48.072;9.884;2023-04-24T06:00:23;1.70;;;1.70;;
20040;SDS011;10181;48.072;9.884;2023-04-24T06:02:49;1.23;;;1.23;;
20040;SDS011;10181;48.072;9.884;2023-04-24T06:05:15;1.33;;;1.33;;
20040;SDS011;10181;48.072;9.884;2023-04-24T06:07:41;0.93;;;0.93;;
20040;SDS011;10181;48.072;9.884;2023-04-24T06:10:07;1.30;;;1.30;;
20040;SDS011;10181;48.072;9.884;2023-04-24T06:12:33;1.83;;;1.83;;
20040;SDS011;10181;48.072;9.884;2023-04-24T06:14:58;1.00;;;1.00;;
20040;SDS011;10181;48.072;9.884;2023-04-24T06:17:25;1.60;;;1.57;;
20040;SDS011;10181;48.072;9.884;2023-04-24T06:19:50;0.90;;;0.90;;
20040;SDS011;10181;48.072;9.884;2023-04-24T06:22:16;1.20;;;1.20;;
20040;SDS011;10181;48.072;9.884;2023-04-24T06:24:41;0.83;;;0.83;;
20040;SDS011;10181;48.072;9.884;2023-04-24T06:27:07;1.10;;;1.10;;
20040;SDS011;10181;48.072;9.884;2023-04-24T06:29:33;1.30;;;1.20;;
20040;SDS011;10181;48.072;9.884;2023-04-24T06:32:00;1.17;;;1.17;;
20040;SDS011;10181;48.072;9.884;2023-04-24T06:34:26;0.87;;;0.87;;
20040;SDS011;10181;48.072;9.884;2023-04-24T06:36:51;0.60;;;0.60;;
20040;SDS011;10181;48.072;9.884;2023-04-24T06:39:17;0.90;;;0.90;;
20040;SDS011;10181;48.072;9.884;2023-04-24T06:41:43;1.10;;;1.10;;
20040;SDS011;10181;48.072;9.884;2023-04-24T06:44:08;1.20;;;1.20;;
20040;SDS011;10181;48.072;9.884;2023-04-24T06:46:34;1.40;;;1.40;;
20040;SDS011;10181;48.072;9.884;2023-04-24T06:49:00;1.33;;;1.23;;
20040;SDS011;10181;48.072;9.884;2023-04-24T06:51:26;1.20;;;1.20;;
20040;SDS011;10181;48.072;9.884;2023-04-24T06:53:55;1.20;;;1.20;;
20040;SDS011;10181;48.072;9.884;2023-04-24T06:56:23;1.50;;;1.40;;
20040;SDS011;10181;48.072;9.884;2023-04-24T06:58:48;1.60;;;1.50;;
20040;SDS011;10181;48.072;9.884;2023-04-24T07:01:14;1.60;;;1.60;;
20040;SDS011;10181;48.072;9.884;2023-04-24T07:03:40;1.83;;;1.83;;
20040;SDS011;10181;48.072;9.884;2023-04-24T07:06:05;1.80;;;1.70;;
20040;SDS011;10181;48.072;9.884;2023-04-24T07:08:31;1.50;;;1.50;;
20040;SDS011;10181;48.072;9.884;2023-04-24T07:10:58;1.57;;;1.57;;
20040;SDS011;10181;48.072;9.884;2023-04-24T07:13:23;1.80;;;1.70;;
20040;SDS011;10181;48.072;9.884;2023-04-24T07:15:49;2.20;;;2.10;;
20040;SDS011;10181;48.072;9.884;2023-04-24T07:18:20;2.00;;;1.90;;
20040;SDS011;10181;48.072;9.884;2023-04-24T07:20:46;2.80;;;2.23;;
20040;SDS011;10181;48.072;9.884;2023-04-24T07:23:12;1.90;;;1.80;;
20040;SDS011;10181;48.072;9.884;2023-04-24T07:25:37;1.97;;;1.87;;
20040;SDS011;10181;48.072;9.884;2023-04-24T07:28:04;2.23;;;2.13;;
20040;SDS011;10181;48.072;9.884;2023-04-24T07:30:30;3.70;;;1.87;;
20040;SDS011;10181;48.072;9.884;2023-04-24T07:32:57;2.07;;;1.97;;
20040;SDS011;10181;48.072;9.884;2023-04-24T07:35:23;2.50;;;2.40;;
20040;SDS011;10181;48.072;9.884;2023-04-24T07:37:50;2.87;;;2.87;;
20040;SDS011;10181;48.072;9.884;2023-04-24T07:40:17;5.70;;;4.20;;
20040;SDS011;10181;48.072;9.884;2023-04-24T07:42:43;3.53;;;3.37;;
20040;SDS011;10181;48.072;9.884;2023-04-24T07:45:09;2.23;;;2.13;;
20040;SDS011;10181;48.072;9.884;2023-04-24T07:47:35;3.10;;;3.00;;
20040;SDS011;10181;48.072;9.884;2023-04-24T07:50:04;3.40;;;3.23;;
20040;SDS011;10181;48.072;9.884;2023-04-24T07:52:30;3.10;;;3.00;;
20040;SDS011;10181;48.072;9.884;2023-04-24T07:54:56;2.80;;;2.70;;
20040;SDS011;10181;48.072;9.884;2023-04-24T07:57:25;2.20;;;2.10;;
20040;SDS011;10181;48.072;9.884;2023-04-24T07:59:51;1.50;;;1.50;;
20040;SDS011;10181;48.072;9.884;2023-04-24T08:02:16;2.07;;;1.83;;
20040;SDS011;10181;48.072;9.884;2023-04-24T08:04:42;1.63;;;1.63;;
20040;SDS011;10181;48.072;9.884;2023-04-24T08:07:08;1.47;;;1.47;;
20040;SDS011;10181;48.072;9.884;2023-04-24T08:09:33;1.37;;;1.37;;
20040;SDS011;10181;48.072;9.884;2023-04-24T08:11:59;1.60;;;1.50;;
20040;SDS011;10181;48.072;9.884;2023-04-24T08:14:25;1.57;;;1.57;;
20040;SDS011;10181;48.072;9.884;2023-04-24T08:16:51;2.53;;;2.10;;
20040;SDS011;10181;48.072;9.884;2023-04-24T08:19:20;1.80;;;1.80;;
20040;SDS011;10181;48.072;9.884;2023-04-24T08:21:46;2.03;;;2.00;;
20040;SDS011;10181;48.072;9.884;2023-04-24T08:24:11;1.87;;;1.83;;
20040;SDS011;10181;48.072;9.884;2023-04-24T08:26:37;2.27;;;2.17;;
20040;SDS011;10181;48.072;9.884;2023-04-24T08:29:03;2.40;;;2.40;;
20040;SDS011;10181;48.072;9.884;2023-04-24T08:31:28;4.27;;;4.07;;
20040;SDS011;10181;48.072;9.884;2023-04-24T08:33:54;4.30;;;4.10;;
20040;SDS011;10181;48.072;9.884;2023-04-24T08:36:20;3.07;;;2.97;;
20040;SDS011;10181;48.072;9.884;2023-04-24T08:38:45;2.20;;;2.10;;
20040;SDS011;10181;48.072;9.884;2023-04-24T08:41:11;3.27;;;3.17;;
20040;SDS011;10181;48.072;9.884;2023-04-24T08:43:40;2.63;;;2.43;;
20040;SDS011;10181;48.072;9.884;2023-04-24T08:46:07;1.23;;;1.23;;
20040;SDS011;10181;48.072;9.884;2023-04-24T08:48:34;0.90;;;0.90;;
20040;SDS011;10181;48.072;9.884;2023-04-24T08:51:00;0.80;;;0.73;;
20040;SDS011;10181;48.072;9.884;2023-04-24T08:53:27;0.60;;;0.60;;
20040;SDS011;10181;48.072;9.884;2023-04-24T08:55:53;0.90;;;0.90;;
20040;SDS011;10181;48.072;9.884;2023-04-24T08:58:20;1.00;;;1.00;;
20040;SDS011;10181;48.072;9.884;2023-04-24T09:00:48;0.90;;;0.90;;
20040;SDS011;10181;48.072;9.884;2023-04-24T09:03:18;1.67;;;1.67;;
20040;SDS011;10181;48.072;9.884;2023-04-24T09:05:46;1.10;;;1.10;;
20040;SDS011;10181;48.072;9.884;2023-04-24T09:08:12;1.30;;;1.30;;
20040;SDS011;10181;48.072;9.884;2023-04-24T09:10:39;1.37;;;1.30;;
20040;SDS011;10181;48.072;9.884;2023-04-24T09:13:05;1.83;;;1.70;;
20040;SDS011;10181;48.072;9.884;2023-04-24T09:15:34;2.47;;;2.10;;
20040;SDS011;10181;48.072;9.884;2023-04-24T09:18:01;2.87;;;2.30;;
20040;SDS011;10181;48.072;9.884;2023-04-24T09:20:27;1.77;;;1.70;;
20040;SDS011;10181;48.072;9.884;2023-04-24T09:22:54;1.50;;;1.50;;
20040;SDS011;10181;48.072;9.884;2023-04-24T09:25:21;5.67;;;1.97;;
20040;SDS011;10181;48.072;9.884;2023-04-24T09:27:47;1.90;;;1.80;;
20040;SDS011;10181;48.072;9.884;2023-04-24T09:30:13;2.40;;;2.30;;
20040;SDS011;10181;48.072;9.884;2023-04-24T09:32:39;2.30;;;2.20;;
20040;SDS011;10181;48.072;9.884;2023-04-24T09:35:06;2.87;;;2.77;;
20040;SDS011;10181;48.072;9.884;2023-04-24T09:37:41;6.57;;;6.37;;
20040;SDS011;10181;48.072;9.884;2023-04-24T09:42:35;3.23;;;3.13;;
20040;SDS011;10181;48.072;9.884;2023-04-24T09:45:01;2.17;;;2.17;;
20040;SDS011;10181;48.072;9.884;2023-04-24T09:47:27;2.23;;;2.13;;
20040;SDS011;10181;48.072;9.884;2023-04-24T09:49:57;2.17;;;2.07;;
20040;SDS011;10181;48.072;9.884;2023-04-24T09:52:23;3.03;;;2.83;;
20040;SDS011;10181;48.072;9.884;2023-04-24T09:54:53;4.10;;;4.00;;
20040;SDS011;10181;48.072;9.884;2023-04-24T09:57:19;2.53;;;2.37;;
20040;SDS011;10181;48.072;9.884;2023-04-24T09:59:45;1.97;;;1.87;;
20040;SDS011;10181;48.072;9.884;2023-04-24T10:02:18;2.53;;;2.27;;
20040;SDS011;10181;48.072;9.884;2023-04-24T10:04:53;4.17;;;4.07;;
20040;SDS011;10181;48.072;9.884;2023-04-24T10:07:27;12.77;;;12.37;;
20040;SDS011;10181;48.072;9.884;2023-04-24T10:09:53;52.73;;;50.63;;
20040;SDS011;10181;48.072;9.884;2023-04-24T10:12:19;139.10;;;134.00;;
20040;SDS011;10181;48.072;9.884;2023-04-24T10:14:46;149.53;;;144.03;;
20040;SDS011;10181;48.072;9.884;2023-04-24T10:17:12;159.70;;;153.87;;
20040;SDS011;10181;48.072;9.884;2023-04-24T10:19:39;16.80;;;16.27;;
20040;SDS011;10181;48.072;9.884;2023-04-24T10:22:06;54.70;;;52.63;;
20040;SDS011;10181;48.072;9.884;2023-04-24T10:24:31;30.73;;;29.57;;
20040;SDS011;10181;48.072;9.884;2023-04-24T10:27:00;21.47;;;20.77;;
20040;SDS011;10181;48.072;9.884;2023-04-24T10:29:26;5.20;;;5.07;;
20040;SDS011;10181;48.072;9.884;2023-04-24T10:31:54;7.83;;;7.63;;
20040;SDS011;10181;48.072;9.884;2023-04-24T10:34:20;15.10;;;14.63;;
20040;SDS011;10181;48.072;9.884;2023-04-24T10:36:48;15.57;;;15.13;;
20040;SDS011;10181;48.072;9.884;2023-04-24T10:39:17;8.80;;;8.53;;
20040;SDS011;10181;48.072;9.884;2023-04-24T10:41:44;7.20;;;7.00;;
20040;SDS011;10181;48.072;9.884;2023-04-24T10:44:15;2.57;;;2.27;;
20040;SDS011;10181;48.072;9.884;2023-04-24T10:46:45;8.33;;;8.03;;
20040;SDS011;10181;48.072;9.884;2023-04-24T10:49:14;3.97;;;3.87;;
20040;SDS011;10181;48.072;9.884;2023-04-24T10:51:50;3.17;;;2.97;;
20040;SDS011;10181;48.072;9.884;2023-04-24T10:54:28;2.10;;;1.30;;
20040;SDS011;10181;48.072;9.884;2023-04-24T10:59:49;22.93;;;22.17;;
20040;SDS011;10181;48.072;9.884;2023-04-24T11:02:16;26.33;;;25.43;;
20040;SDS011;10181;48.072;9.884;2023-04-24T11:04:43;14.67;;;14.27;;
20040;SDS011;10181;48.072;9.884;2023-04-24T11:07:10;27.83;;;26.83;;
20040;SDS011;10181;48.072;9.884;2023-04-24T11:09:36;28.50;;;27.53;;
20040;SDS011;10181;48.072;9.884;2023-04-24T11:17:37;4.37;;;4.27;;
20040;SDS011;10181;48.072;9.884;2023-04-24T11:20:08;2.27;;;1.80;;
20040;SDS011;10181;48.072;9.884;2023-04-24T11:22:41;30.17;;;29.07;;
20040;SDS011;10181;48.072;9.884;2023-04-24T11:25:06;2.27;;;2.10;;
20040;SDS011;10181;48.072;9.884;2023-04-24T11:30:08;26.50;;;25.60;;
20040;SDS011;10181;48.072;9.884;2023-04-24T11:32:36;29.63;;;28.57;;
20040;SDS011;10181;48.072;9.884;2023-04-24T11:35:20;32.97;;;31.67;;
20040;SDS011;10181;48.072;9.884;2023-04-24T11:37:50;29.20;;;28.23;;
20040;SDS011;10181;48.072;9.884;2023-04-24T11:40:18;30.10;;;28.93;;
20040;SDS011;10181;48.072;9.884;2023-04-24T11:42:50;51.53;;;49.63;;
20040;SDS011;10181;48.072;9.884;2023-04-24T11:45:38;49.70;;;47.90;;
20040;SDS011;10181;48.072;9.884;2023-04-24T11:48:03;51.53;;;49.53;;
20040;SDS011;10181;48.072;9.884;2023-04-24T11:50:28;23.47;;;22.67;;
20040;SDS011;10181;48.072;9.884;2023-04-24T11:52:54;16.83;;;16.27;;
20040;SDS011;10181;48.072;9.884;2023-04-24T11:57:46;4.50;;;4.40;;
20040;SDS011;10181;48.072;9.884;2023-04-24T12:00:21;36.07;;;34.67;;
20040;SDS011;10181;48.072;9.884;2023-04-24T12:02:48;32.00;;;30.80;;
20040;SDS011;10181;48.072;9.884;2023-04-24T12:05:25;25.60;;;24.67;;
20040;SDS011;10181;48.072;9.884;2023-04-24T12:07:52;3.30;;;3.20;;
20040;SDS011;10181;48.072;9.884;2023-04-24T12:10:22;2.80;;;2.60;;
20040;SDS011;10181;48.072;9.884;2023-04-24T12:12:49;3.50;;;3.40;;
20040;SDS011;10181;48.072;9.884;2023-04-24T12:15:16;2.67;;;2.57;;
20040;SDS011;10181;48.072;9.884;2023-04-24T12:17:45;4.77;;;4.67;;
20040;SDS011;10181;48.072;9.884;2023-04-24T12:20:11;16.43;;;15.93;;
20040;SDS011;10181;48.072;9.884;2023-04-24T12:22:54;6.07;;;5.87;;
20040;SDS011;10181;48.072;9.884;2023-04-24T12:25:28;1.70;;;1.70;;
20040;SDS011;10181;48.072;9.884;2023-04-24T12:30:30;3.67;;;3.47;;
20040;SDS011;10181;48.072;9.884;2023-04-24T12:33:03;17.10;;;16.57;;
20040;SDS011;10181;48.072;9.884;2023-04-24T12:35:29;15.53;;;14.67;;
20040;SDS011;10181;48.072;9.884;2023-04-24T12:38:10;26.07;;;25.03;;
20040;SDS011;10181;48.072;9.884;2023-04-24T12:40:38;7.70;;;7.33;;
20040;SDS011;10181;48.072;9.884;2023-04-24T12:43:12;12.53;;;12.03;;
20040;SDS011;10181;48.072;9.884;2023-04-24T12:45:38;4.17;;;4.00;;
20040;SDS011;10181;48.072;9.884;2023-04-24T12:48:04;2.07;;;2.07;;
20040;SDS011;10181;48.072;9.884;2023-04-24T12:50:30;4.60;;;4.50;;
20040;SDS011;10181;48.072;9.884;2023-04-24T12:52:55;1.80;;;1.70;;
20040;SDS011;10181;48.072;9.884;2023-04-24T12:55:21;3.27;;;3.17;;
20040;SDS011;10181;48.072;9.884;2023-04-24T12:57:47;1.97;;;1.70;;
20040;SDS011;10181;48.072;9.884;2023-04-24T13:00:12;1.97;;;1.97;;
20040;SDS011;10181;48.072;9.884;2023-04-24T13:02:38;3.67;;;3.57;;
20040;SDS011;10181;48.072;9.884;2023-04-24T13:05:05;1.77;;;1.67;;
20040;SDS011;10181;48.072;9.884;2023-04-24T13:07:31;1.60;;;1.60;;
20040;SDS011;10181;48.072;9.884;2023-04-24T13:09:56;1.70;;;1.70;;
20040;SDS011;10181;48.072;9.884;2023-04-24T13:12:25;1.70;;;1.70;;
20040;SDS011;10181;48.072;9.884;2023-04-24T13:14:51;2.37;;;2.27;;
20040;SDS011;10181;48.072;9.884;2023-04-24T13:17:17;2.20;;;2.20;;
20040;SDS011;10181;48.072;9.884;2023-04-24T13:19:43;1.53;;;1.40;;
20040;SDS011;10181;48.072;9.884;2023-04-24T13:22:10;5.53;;;5.33;;
20040;SDS011;10181;48.072;9.884;2023-04-24T13:24:36;8.33;;;8.13;;
20040;SDS011;10181;48.072;9.884;2023-04-24T13:27:03;2.80;;;2.60;;
20040;SDS011;10181;48.072;9.884;2023-04-24T13:29:28;3.70;;;3.50;;
20040;SDS011;10181;48.072;9.884;2023-04-24T13:31:54;2.93;;;2.73;;
20040;SDS011;10181;48.072;9.884;2023-04-24T13:34:21;2.33;;;2.23;;
20040;SDS011;10181;48.072;9.884;2023-04-24T13:36:48;3.63;;;3.43;;
20040;SDS011;10181;48.072;9.884;2023-04-24T13:39:18;2.73;;;2.60;;
20040;SDS011;10181;48.072;9.884;2023-04-24T13:41:44;2.30;;;2.20;;
20040;SDS011;10181;48.072;9.884;2023-04-24T13:44:12;1.40;;;1.30;;
20040;SDS011;10181;48.072;9.884;2023-04-24T13:46:37;2.93;;;2.87;;
20040;SDS011;10181;48.072;9.884;2023-04-24T13:49:03;2.70;;;2.67;;
20040;SDS011;10181;48.072;9.884;2023-04-24T13:51:28;1.40;;;1.30;;
20040;SDS011;10181;48.072;9.884;2023-04-24T13:53:55;1.10;;;1.10;;
20040;SDS011;10181;48.072;9.884;2023-04-24T13:56:21;1.30;;;1.30;;
20040;SDS011;10181;48.072;9.884;2023-04-24T13:58:47;2.00;;;2.00;;
20040;SDS011;10181;48.072;9.884;2023-04-24T14:01:13;1.70;;;1.70;;
20040;SDS011;10181;48.072;9.884;2023-04-24T14:03:40;1.30;;;1.30;;
20040;SDS011;10181;48.072;9.884;2023-04-24T14:06:06;3.27;;;1.67;;
20040;SDS011;10181;48.072;9.884;2023-04-24T14:08:32;1.53;;;1.53;;
20040;SDS011;10181;48.072;9.884;2023-04-24T14:10:57;1.63;;;1.63;;
20040;SDS011;10181;48.072;9.884;2023-04-24T14:13:23;1.30;;;1.30;;
20040;SDS011;10181;48.072;9.884;2023-04-24T14:15:49;1.20;;;1.20;;
20040;SDS011;10181;48.072;9.884;2023-04-24T14:18:14;1.50;;;1.50;;
20040;SDS011;10181;48.072;9.884;2023-04-24T14:20:40;1.10;;;1.10;;
20040;SDS011;10181;48.072;9.884;2023-04-24T14:23:06;1.57;;;1.57;;
20040;SDS011;10181;48.072;9.884;2023-04-24T14:25:31;1.13;;;1.13;;
20040;SDS011;10181;48.072;9.884;2023-04-24T14:27:57;1.37;;;1.37;;
20040;SDS011;10181;48.072;9.884;2023-04-24T14:30:22;1.27;;;1.27;;
20040;SDS011;10181;48.072;9.884;2023-04-24T14:32:48;1.87;;;1.77;;
20040;SDS011;10181;48.072;9.884;2023-04-24T14:35:14;1.43;;;1.43;;
20040;SDS011;10181;48.072;9.884;2023-04-24T14:37:40;1.50;;;1.50;;
20040;SDS011;10181;48.072;9.884;2023-04-24T14:40:06;1.67;;;1.57;;
20040;SDS011;10181;48.072;9.884;2023-04-24T14:42:33;1.70;;;1.60;;
20040;SDS011;10181;48.072;9.884;2023-04-24T14:44:59;1.50;;;1.50;;
20040;SDS011;10181;48.072;9.884;2023-04-24T14:47:24;8.27;;;7.90;;
20040;SDS011;10181;48.072;9.884;2023-04-24T14:49:50;1.70;;;1.60;;
20040;SDS011;10181;48.072;9.884;2023-04-24T14:52:16;7.57;;;7.33;;
20040;SDS011;10181;48.072;9.884;2023-04-24T14:54:42;3.53;;;3.43;;
20040;SDS011;10181;48.072;9.884;2023-04-24T14:57:08;2.10;;;2.00;;
20040;SDS011;10181;48.072;9.884;2023-04-24T14:59:34;2.43;;;2.33;;